createdAt,value
2022-08-04T00:00:09.780Z,21.50
2022-08-04T00:02:10.977Z,21.17
2022-08-04T00:03:26.452Z,21.19
2022-08-04T00:04:44.595Z,21.21
2022-08-04T00:06:07.974Z,21.36
2022-08-04T00:07:44.673Z,21.44
2022-08-04T00:09:00.303Z,21.38
2022-08-04T00:10:10.936Z,21.37
2022-08-04T00:11:24.621Z,20.97
2022-08-04T00:12:37.868Z,20.86
2022-08-04T00:14:02.889Z,20.87
2022-08-04T00:15:14.748Z,20.48
2022-08-04T00:16:24.269Z,20.35
2022-08-04T00:17:48.426Z,20.49
2022-08-04T00:18:59.546Z,20.60
2022-08-04T00:20:09.819Z,20.74
2022-08-04T00:21:17.816Z,21.15
2022-08-04T00:22:27.784Z,21.18
2022-08-04T00:24:10.777Z,21.07
2022-08-04T00:25:08.267Z,21.27
2022-08-04T00:26:18.281Z,21.43
2022-08-04T00:27:32.142Z,21.63
2022-08-04T00:28:44.266Z,21.89
2022-08-04T00:29:53.200Z,21.99
2022-08-04T00:31:02.879Z,22.06
2022-08-04T00:32:12.853Z,22.01
2022-08-04T00:33:24.752Z,22.02
2022-08-04T00:34:34.133Z,21.92
2022-08-04T00:35:46.282Z,22.02
2022-08-04T00:36:57.614Z,22.13
2022-08-04T00:38:08.556Z,22.23
2022-08-04T00:39:16.687Z,22.15
2022-08-04T00:41:04.395Z,22.14
2022-08-04T00:42:35.659Z,22.43
2022-08-04T00:44:03.847Z,22.42
2022-08-04T00:46:15.544Z,22.34
2022-08-04T00:47:42.681Z,22.30
2022-08-04T00:49:06.061Z,22.51
2022-08-04T00:50:25.658Z,22.91
2022-08-04T00:52:31.425Z,22.88
2022-08-04T00:54:03.181Z,22.50
2022-08-04T00:55:48.698Z,22.59
2022-08-04T00:57:37.674Z,22.59
2022-08-04T00:59:17.915Z,22.31
2022-08-04T01:00:25.967Z,22.42
2022-08-04T01:02:09.309Z,22.39
2022-08-04T01:03:32.283Z,22.46
2022-08-04T01:05:11.737Z,22.58
2022-08-04T01:06:24.743Z,22.67
2022-08-04T01:08:10.722Z,23.12
2022-08-04T01:09:21.870Z,23.02
2022-08-04T01:10:48.093Z,22.89
2022-08-04T01:12:01.081Z,23.31
2022-08-04T01:13:36.537Z,23.34
2022-08-04T01:15:21.201Z,23.46
2022-08-04T01:16:29.401Z,23.49
2022-08-04T01:17:49.620Z,23.75
2022-08-04T01:19:20.301Z,24.02
2022-08-04T01:20:28.687Z,24.05
2022-08-04T01:22:08.066Z,24.01
2022-08-04T01:23:45.790Z,24.01
2022-08-04T01:25:02.179Z,24.28
2022-08-04T01:26:43.571Z,24.55
2022-08-04T01:28:24.870Z,24.48
2022-08-04T01:29:55.672Z,24.72
2022-08-04T01:31:13.626Z,24.52
2022-08-04T01:32:29.616Z,24.33
2022-08-04T01:34:04.091Z,23.94
2022-08-04T01:35:47.174Z,24.13
2022-08-04T01:37:14.276Z,24.03
2022-08-04T01:38:30.349Z,24.30
2022-08-04T01:39:44.218Z,24.54
2022-08-04T01:40:54.894Z,24.66
2022-08-04T01:42:04.463Z,24.50
2022-08-04T01:43:13.210Z,24.63
2022-08-04T01:44:21.193Z,24.56
2022-08-04T01:45:29.905Z,24.52
2022-08-04T01:46:38.431Z,24.60
2022-08-04T01:47:53.560Z,24.03
2022-08-04T01:49:05.020Z,23.68
2022-08-04T01:50:14.209Z,23.66
2022-08-04T01:51:21.826Z,23.61
2022-08-04T01:52:30.000Z,23.74
2022-08-04T01:53:41.630Z,23.80
2022-08-04T01:54:50.374Z,24.13
2022-08-04T01:56:00.352Z,24.47
2022-08-04T01:57:38.733Z,24.51
2022-08-04T01:58:39.268Z,24.35
2022-08-04T01:59:47.667Z,24.54
2022-08-04T02:01:09.038Z,24.53
2022-08-04T02:02:18.362Z,24.71
2022-08-04T02:04:19.517Z,24.60
2022-08-04T02:05:00.196Z,24.90
2022-08-04T02:06:20.236Z,25.19
2022-08-04T02:08:02.355Z,25.68
2022-08-04T02:09:26.685Z,25.79
2022-08-04T02:11:00.836Z,25.60
2022-08-04T02:12:42.566Z,25.50
2022-08-04T02:14:41.602Z,25.54
2022-08-04T02:16:19.091Z,25.61
2022-08-04T02:17:45.733Z,25.93
2022-08-04T02:19:31.418Z,26.09
2022-08-04T02:20:51.915Z,26.48
2022-08-04T02:22:10.597Z,26.69
2022-08-04T02:23:47.561Z,26.75
2022-08-04T02:25:13.989Z,27.28
2022-08-04T02:26:25.804Z,27.75
2022-08-04T02:28:00.531Z,27.89
2022-08-04T02:29:23.839Z,27.98
2022-08-04T02:30:36.496Z,28.16
2022-08-04T02:32:01.257Z,28.42
2022-08-04T02:33:12.363Z,28.41
2022-08-04T02:34:58.186Z,28.63
2022-08-04T02:36:07.907Z,29.21
2022-08-04T02:37:18.408Z,29.75
2022-08-04T02:38:29.282Z,30.22
2022-08-04T02:39:48.325Z,30.53
2022-08-04T02:41:00.134Z,30.89
2022-08-04T02:42:08.275Z,31.09
2022-08-04T02:43:50.794Z,31.24
2022-08-04T02:44:52.116Z,31.88
2022-08-04T02:46:00.126Z,32.05
2022-08-04T02:47:07.394Z,32.18
2022-08-04T02:48:29.478Z,32.46
2022-08-04T02:49:41.305Z,33.00
2022-08-04T02:50:49.282Z,33.39
2022-08-04T02:52:06.049Z,33.59
2022-08-04T02:53:15.957Z,33.72
2022-08-04T02:54:32.905Z,33.70
2022-08-04T02:55:51.132Z,33.93
2022-08-04T02:57:08.350Z,34.04
2022-08-04T02:58:19.513Z,34.16
2022-08-04T02:59:29.577Z,34.15
2022-08-04T03:00:41.160Z,34.41
2022-08-04T03:01:56.517Z,34.61
2022-08-04T03:03:34.653Z,34.64
2022-08-04T03:04:54.173Z,34.75
2022-08-04T03:06:14.822Z,34.62
2022-08-04T03:07:49.493Z,34.83
2022-08-04T03:09:20.685Z,34.95
2022-08-04T03:11:23.069Z,35.26
2022-08-04T03:13:08.156Z,35.34
2022-08-04T03:14:31.824Z,35.51
2022-08-04T03:16:00.963Z,35.89
2022-08-04T03:17:30.244Z,36.03
2022-08-04T03:18:48.097Z,36.02
2022-08-04T03:20:33.671Z,36.13
2022-08-04T03:21:56.875Z,36.31
2022-08-04T03:23:42.789Z,36.23
2022-08-04T03:25:29.369Z,35.76
2022-08-04T03:27:03.119Z,34.81
2022-08-04T03:28:49.820Z,34.23
2022-08-04T03:30:20.577Z,34.22
2022-08-04T03:31:50.541Z,34.12
2022-08-04T03:33:11.479Z,34.15
2022-08-04T03:34:31.676Z,34.10
2022-08-04T03:35:53.507Z,34.10
2022-08-04T03:37:20.689Z,33.98
2022-08-04T03:39:06.247Z,33.99
2022-08-04T03:40:24.653Z,33.98
2022-08-04T03:42:04.763Z,34.14
2022-08-04T03:43:57.083Z,34.39
2022-08-04T03:45:38.170Z,34.96
2022-08-04T03:47:13.460Z,35.25
2022-08-04T03:48:35.122Z,35.78
2022-08-04T03:50:11.149Z,35.90
2022-08-04T03:51:52.247Z,35.92
2022-08-04T03:53:49.386Z,36.40
2022-08-04T03:55:19.938Z,36.62
2022-08-04T03:56:35.096Z,36.79
2022-08-04T03:57:58.649Z,37.15
2022-08-04T04:00:03.486Z,37.26
2022-08-04T04:02:02.005Z,37.38
2022-08-04T04:03:48.112Z,37.33
2022-08-04T04:05:58.971Z,37.52
2022-08-04T04:07:35.722Z,37.83
2022-08-04T04:09:06.088Z,37.92
2022-08-04T04:10:29.025Z,37.88
2022-08-04T04:11:55.421Z,38.05
2022-08-04T04:13:48.798Z,38.11
2022-08-04T04:15:33.765Z,38.14
2022-08-04T04:17:04.229Z,38.16
2022-08-04T04:18:19.003Z,38.17
2022-08-04T04:19:44.655Z,38.23
2022-08-04T04:21:02.851Z,38.41
2022-08-04T04:22:27.768Z,38.81
2022-08-04T04:24:09.796Z,39.17
2022-08-04T04:25:36.393Z,39.18
2022-08-04T04:27:20.296Z,39.32
2022-08-04T04:29:09.571Z,39.40
2022-08-04T04:30:33.705Z,39.69
2022-08-04T04:31:59.820Z,39.98
2022-08-04T04:33:45.790Z,39.92
2022-08-04T04:35:16.118Z,40.22
2022-08-04T04:36:28.868Z,40.74
2022-08-04T04:38:12.666Z,40.74
2022-08-04T04:39:40.209Z,41.02
2022-08-04T04:41:16.951Z,41.14
2022-08-04T04:42:54.188Z,41.13
2022-08-04T04:44:28.720Z,41.06
2022-08-04T04:46:19.349Z,41.18
2022-08-04T04:48:10.025Z,41.21
2022-08-04T04:49:52.131Z,41.02
2022-08-04T04:51:25.542Z,40.84
2022-08-04T04:52:48.002Z,40.86
2022-08-04T04:54:18.449Z,40.79
2022-08-04T04:55:34.299Z,41.01
2022-08-04T04:57:02.610Z,40.96
2022-08-04T04:58:10.868Z,40.98
2022-08-04T04:59:23.445Z,40.85
2022-08-04T05:00:58.420Z,40.95
2022-08-04T05:02:45.609Z,40.87
2022-08-04T05:04:29.211Z,40.92
2022-08-04T05:05:56.337Z,41.05
2022-08-04T05:07:41.337Z,41.01
2022-08-04T05:09:08.624Z,41.20
2022-08-04T05:10:54.455Z,41.11
2022-08-04T05:14:22.823Z,41.25
2022-08-04T05:14:34.916Z,41.21
2022-08-04T05:15:12.517Z,41.26
2022-08-04T05:16:30.144Z,41.29
2022-08-04T05:17:44.783Z,41.24
2022-08-04T05:19:17.003Z,41.47
2022-08-04T05:20:27.483Z,41.52
2022-08-04T05:21:50.034Z,41.67
2022-08-04T05:23:27.524Z,41.77
2022-08-04T05:24:39.704Z,41.85
2022-08-04T05:26:07.440Z,42.10
2022-08-04T05:27:18.921Z,42.70
2022-08-04T05:28:31.160Z,42.69
2022-08-04T05:29:43.654Z,43.35
2022-08-04T05:30:58.731Z,43.55
2022-08-04T05:32:08.943Z,43.68
2022-08-04T05:33:17.724Z,43.85
2022-08-04T05:34:34.615Z,44.33
2022-08-04T05:36:20.461Z,44.44
2022-08-04T05:37:28.307Z,44.54
2022-08-04T05:38:40.353Z,44.65
2022-08-04T05:40:00.624Z,44.74
2022-08-04T05:41:09.788Z,44.89
2022-08-04T05:42:18.115Z,45.00
2022-08-04T05:43:28.773Z,44.79
2022-08-04T05:44:37.345Z,44.98
2022-08-04T05:45:50.422Z,45.05
2022-08-04T05:46:59.773Z,45.13
2022-08-04T05:48:10.298Z,45.17
2022-08-04T05:49:21.204Z,45.07
2022-08-04T05:50:33.666Z,45.35
2022-08-04T05:51:43.687Z,45.45
2022-08-04T05:52:59.999Z,45.55
2022-08-04T05:54:14.255Z,45.74
2022-08-04T05:55:48.668Z,45.82
2022-08-04T05:56:54.738Z,46.21
2022-08-04T05:58:08.084Z,46.56
2022-08-04T05:59:30.948Z,46.73
2022-08-04T06:00:41.688Z,46.82
2022-08-04T06:01:55.540Z,47.19
2022-08-04T06:03:08.982Z,47.10
2022-08-04T06:04:17.166Z,47.08
2022-08-04T06:05:25.424Z,47.11
2022-08-04T06:06:33.924Z,47.34
2022-08-04T06:08:04.419Z,47.53
2022-08-04T06:09:14.868Z,47.94
2022-08-04T06:10:29.194Z,48.42
2022-08-04T06:12:00.593Z,48.82
2022-08-04T06:13:48.742Z,49.02
2022-08-04T06:14:46.058Z,49.77
2022-08-04T06:15:54.554Z,49.74
2022-08-04T06:18:33.523Z,50.22
2022-08-04T06:20:00.847Z,50.58
2022-08-04T06:20:17.940Z,51.13
2022-08-04T06:21:29.504Z,51.57
2022-08-04T06:22:37.657Z,52.35
2022-08-04T06:23:53.722Z,52.52
2022-08-04T06:25:08.712Z,52.91
2022-08-04T06:26:21.372Z,53.25
2022-08-04T06:27:32.027Z,53.37
2022-08-04T06:28:40.452Z,53.36
2022-08-04T06:29:51.405Z,53.70
2022-08-04T06:32:27.333Z,53.81
2022-08-04T06:32:49.157Z,54.05
2022-08-04T06:33:58.142Z,53.97
2022-08-04T06:35:09.455Z,53.95
2022-08-04T06:36:17.841Z,54.17
2022-08-04T06:37:42.828Z,54.38
2022-08-04T06:38:58.393Z,54.65
2022-08-04T06:40:29.583Z,54.25
2022-08-04T06:41:38.787Z,54.75
2022-08-04T06:43:09.537Z,55.12
2022-08-04T06:44:17.009Z,55.68
2022-08-04T06:45:27.388Z,55.54
2022-08-04T06:46:36.353Z,55.34
2022-08-04T06:47:45.589Z,55.11
2022-08-04T06:48:52.687Z,55.94
2022-08-04T06:51:27.654Z,56.46
2022-08-04T06:51:37.060Z,56.63
2022-08-04T06:52:48.650Z,55.88
2022-08-04T06:53:59.694Z,55.79
2022-08-04T06:55:10.057Z,56.09
2022-08-04T06:56:18.671Z,55.81
2022-08-04T06:57:29.585Z,55.46
2022-08-04T06:58:40.566Z,55.69
2022-08-04T06:59:48.813Z,55.49
2022-08-04T07:01:03.233Z,55.66
2022-08-04T07:02:31.883Z,55.95
2022-08-04T07:03:39.902Z,55.95
2022-08-04T07:04:48.761Z,56.14
2022-08-04T07:05:56.603Z,56.26
2022-08-04T07:07:08.284Z,56.34
2022-08-04T07:08:19.686Z,56.19
2022-08-04T07:09:27.957Z,56.20
2022-08-04T07:10:36.684Z,56.36
2022-08-04T07:11:46.667Z,56.44
2022-08-04T07:12:55.772Z,56.45
2022-08-04T07:14:04.900Z,56.46
2022-08-04T07:15:14.431Z,56.24
2022-08-04T07:16:30.728Z,56.16
2022-08-04T07:17:44.371Z,56.00
2022-08-04T07:18:55.800Z,56.50
2022-08-04T07:20:13.402Z,56.56
2022-08-04T07:21:25.211Z,56.73
2022-08-04T07:22:34.953Z,56.84
2022-08-04T07:23:46.024Z,56.99
2022-08-04T07:25:00.083Z,57.28
2022-08-04T07:26:13.543Z,57.46
2022-08-04T07:27:47.596Z,57.40
2022-08-04T07:28:51.568Z,57.13
2022-08-04T07:30:00.870Z,57.09
2022-08-04T07:31:32.991Z,57.27
2022-08-04T07:32:43.055Z,57.36
2022-08-04T07:34:31.770Z,57.37
2022-08-04T07:36:09.295Z,57.32
2022-08-04T07:37:21.900Z,57.59
2022-08-04T07:38:48.071Z,57.42
2022-08-04T07:40:00.300Z,57.21
2022-08-04T07:41:38.503Z,57.41
2022-08-04T07:42:39.139Z,57.67
2022-08-04T07:43:47.557Z,57.58
2022-08-04T07:44:58.603Z,57.44
2022-08-04T07:46:08.224Z,57.73
2022-08-04T07:47:21.012Z,57.63
2022-08-04T07:48:34.473Z,57.56
2022-08-04T07:49:54.397Z,57.41
2022-08-04T07:51:07.584Z,57.63
2022-08-04T07:52:16.824Z,57.65
2022-08-04T07:53:54.794Z,57.86
2022-08-04T07:54:54.500Z,58.05
2022-08-04T07:56:04.960Z,58.19
2022-08-04T07:57:19.629Z,58.04
2022-08-04T07:58:43.232Z,58.04
2022-08-04T07:59:51.761Z,57.94
2022-08-04T08:00:58.818Z,57.74
2022-08-04T08:02:06.293Z,57.76
2022-08-04T08:03:13.773Z,57.78
2022-08-04T08:04:23.481Z,57.88
2022-08-04T08:05:33.235Z,57.81
2022-08-04T08:06:43.449Z,57.89
2022-08-04T08:07:55.061Z,57.90
2022-08-04T08:09:13.207Z,58.21
2022-08-04T08:10:25.994Z,58.12
2022-08-04T08:12:37.065Z,58.13
2022-08-04T08:13:07.672Z,58.23
2022-08-04T08:14:20.739Z,58.23
2022-08-04T08:15:29.745Z,58.28
2022-08-04T08:16:39.114Z,58.15
2022-08-04T08:17:59.631Z,58.21
2022-08-04T08:19:09.989Z,58.20
2022-08-04T08:20:29.149Z,58.22
2022-08-04T08:21:59.036Z,58.33
2022-08-04T08:23:07.591Z,58.53
2022-08-04T08:24:15.504Z,58.46
2022-08-04T08:25:23.454Z,58.33
2022-08-04T08:26:30.732Z,58.20
2022-08-04T08:27:40.565Z,58.14
2022-08-04T08:29:04.536Z,58.11
2022-08-04T08:30:15.007Z,57.97
2022-08-04T08:31:25.703Z,58.07
2022-08-04T08:32:52.888Z,58.05
2022-08-04T08:34:03.775Z,58.15
2022-08-04T08:35:14.147Z,58.04
2022-08-04T08:36:24.717Z,57.90
2022-08-04T08:37:56.278Z,57.81
2022-08-04T08:39:14.516Z,57.85
2022-08-04T08:40:41.148Z,57.99
2022-08-04T08:42:18.460Z,58.28
2022-08-04T08:44:05.506Z,58.51
2022-08-04T08:45:54.812Z,58.43
2022-08-04T08:47:20.664Z,58.79
2022-08-04T08:49:03.544Z,58.98
2022-08-04T08:50:49.304Z,59.27
2022-08-04T08:53:01.894Z,59.06
2022-08-04T08:55:03.459Z,59.19
2022-08-04T08:56:31.245Z,59.03
2022-08-04T08:58:15.768Z,58.96
2022-08-04T08:59:41.202Z,59.02
2022-08-04T09:01:08.122Z,59.00
2022-08-04T09:02:40.792Z,59.06
2022-08-04T09:04:07.393Z,59.21
2022-08-04T09:05:24.696Z,59.43
2022-08-04T09:06:50.871Z,59.46
2022-08-04T09:08:33.202Z,59.17
2022-08-04T09:09:50.302Z,59.37
2022-08-04T09:11:21.499Z,59.65
2022-08-04T09:12:43.507Z,59.47
2022-08-04T09:14:20.819Z,59.53
2022-08-04T09:16:20.729Z,59.45
2022-08-04T09:17:43.766Z,59.23
2022-08-04T09:18:57.094Z,59.06
2022-08-04T09:20:18.902Z,59.06
2022-08-04T09:21:27.242Z,59.51
2022-08-04T09:22:56.483Z,59.57
2022-08-04T09:24:36.147Z,59.78
2022-08-04T09:26:22.447Z,59.59
2022-08-04T09:27:33.736Z,59.38
2022-08-04T09:28:54.128Z,59.65
2022-08-04T09:30:06.429Z,60.37
2022-08-04T09:31:21.726Z,60.88
2022-08-04T09:32:47.968Z,61.75
2022-08-04T09:34:22.391Z,62.39
2022-08-04T09:35:49.934Z,62.44
2022-08-04T09:37:14.952Z,62.42
2022-08-04T09:38:50.246Z,62.36
2022-08-04T09:40:31.364Z,62.75
2022-08-04T09:42:07.386Z,62.95
2022-08-04T09:43:58.999Z,63.08
2022-08-04T09:45:51.242Z,63.10
2022-08-04T09:47:02.602Z,62.72
2022-08-04T09:48:38.188Z,62.78
2022-08-04T09:49:57.846Z,62.87
2022-08-04T09:51:14.365Z,63.09
2022-08-04T09:52:52.128Z,63.53
2022-08-04T09:54:43.869Z,63.73
2022-08-04T09:56:06.472Z,63.72
2022-08-04T09:57:19.460Z,63.77
2022-08-04T09:58:42.843Z,63.73
2022-08-04T10:00:40.291Z,63.74
2022-08-04T10:01:58.836Z,63.99
2022-08-04T10:03:07.949Z,64.08
2022-08-04T10:04:16.633Z,64.21
2022-08-04T10:05:48.208Z,64.28
2022-08-04T10:07:19.260Z,64.22
2022-08-04T10:08:52.014Z,64.48
2022-08-04T10:10:23.673Z,64.58
2022-08-04T10:11:55.811Z,64.18
2022-08-04T10:13:20.984Z,64.58
2022-08-04T10:14:56.119Z,64.56
2022-08-04T10:16:23.746Z,64.39
2022-08-04T10:18:07.145Z,64.67
2022-08-04T10:19:21.334Z,64.75
2022-08-04T10:21:09.110Z,65.11
2022-08-04T10:22:44.776Z,65.02
2022-08-04T10:24:09.098Z,65.14
2022-08-04T10:26:03.226Z,64.68
2022-08-04T10:26:52.135Z,64.48
2022-08-04T10:28:07.688Z,64.48
2022-08-04T10:29:16.868Z,64.43
2022-08-04T10:30:26.371Z,64.44
2022-08-04T10:31:36.835Z,64.41
2022-08-04T10:32:45.094Z,65.36
2022-08-04T10:34:23.305Z,64.93
2022-08-04T10:35:34.818Z,64.95
2022-08-04T10:36:50.578Z,65.14
2022-08-04T10:38:14.712Z,65.32
2022-08-04T10:40:12.711Z,65.69
2022-08-04T10:41:59.760Z,65.95
2022-08-04T10:43:27.773Z,65.70
2022-08-04T10:44:42.207Z,65.39
2022-08-04T10:46:27.814Z,65.31
2022-08-04T10:47:39.863Z,65.24
2022-08-04T10:49:11.360Z,65.05
2022-08-04T10:50:20.973Z,65.02
2022-08-04T10:51:57.218Z,65.11
2022-08-04T10:53:13.895Z,65.38
2022-08-04T10:54:45.657Z,65.34
2022-08-04T10:56:06.580Z,65.62
2022-08-04T10:57:53.849Z,65.41
2022-08-04T10:59:13.798Z,65.24
2022-08-04T11:00:29.491Z,65.36
2022-08-04T11:02:01.323Z,65.43
2022-08-04T11:03:13.524Z,65.33
2022-08-04T11:04:49.344Z,65.17
2022-08-04T11:05:57.930Z,65.03
2022-08-04T11:07:05.457Z,65.12
2022-08-04T11:08:23.128Z,65.02
2022-08-04T11:09:33.388Z,65.03
2022-08-04T11:10:51.866Z,65.07
2022-08-04T11:12:20.471Z,65.06
2022-08-04T11:13:31.248Z,64.83
2022-08-04T11:14:53.662Z,64.72
2022-08-04T11:16:05.813Z,64.87
2022-08-04T11:17:27.277Z,64.79
2022-08-04T11:18:41.042Z,64.87
2022-08-04T11:20:12.375Z,64.78
2022-08-04T11:21:34.219Z,65.03
2022-08-04T11:22:54.577Z,65.38
2022-08-04T11:24:18.806Z,65.45
2022-08-04T11:25:29.985Z,65.62
2022-08-04T11:27:07.239Z,65.42
2022-08-04T11:28:41.499Z,65.25
2022-08-04T11:29:59.355Z,65.08
2022-08-04T11:31:14.523Z,65.02
2022-08-04T11:32:37.878Z,64.89
2022-08-04T11:33:55.904Z,65.14
2022-08-04T11:35:09.594Z,65.29
2022-08-04T11:37:02.372Z,65.53
2022-08-04T11:38:32.279Z,65.66
2022-08-04T11:39:46.286Z,65.57
2022-08-04T11:41:03.155Z,65.51
2022-08-04T11:42:32.580Z,65.51
2022-08-04T11:44:01.819Z,65.44
2022-08-04T11:45:19.759Z,65.39
2022-08-04T11:46:45.252Z,65.27
2022-08-04T11:48:13.574Z,65.31
2022-08-04T11:49:24.455Z,65.53
2022-08-04T11:50:39.540Z,65.85
2022-08-04T11:51:49.023Z,65.87
2022-08-04T11:52:58.278Z,65.76
2022-08-04T11:54:07.546Z,65.60
2022-08-04T11:55:21.050Z,65.71
2022-08-04T11:56:37.273Z,65.69
2022-08-04T11:57:54.374Z,65.78
2022-08-04T11:59:03.502Z,65.75
2022-08-04T12:00:12.737Z,65.99
2022-08-04T12:01:50.415Z,66.26
2022-08-04T12:03:42.921Z,66.39
2022-08-04T12:05:09.486Z,66.42
2022-08-04T12:07:40.545Z,66.52
2022-08-04T12:09:34.360Z,66.34
2022-08-04T12:11:15.998Z,66.50
2022-08-04T12:12:50.085Z,66.51
2022-08-04T12:14:03.404Z,66.56
2022-08-04T12:15:34.852Z,66.57
2022-08-04T12:17:03.788Z,66.84
2022-08-04T12:19:03.420Z,67.09
2022-08-04T12:20:40.363Z,67.24
2022-08-04T12:22:03.518Z,67.01
2022-08-04T12:23:25.355Z,67.00
2022-08-04T12:25:08.012Z,66.81
2022-08-04T12:26:28.972Z,67.00
2022-08-04T12:28:00.209Z,66.99
2022-08-04T12:29:11.755Z,67.02
2022-08-04T12:31:00.106Z,67.35
2022-08-04T12:32:03.286Z,67.60
2022-08-04T12:33:18.073Z,67.58
2022-08-04T12:34:34.564Z,67.51
2022-08-04T12:36:10.482Z,67.50
2022-08-04T12:37:50.707Z,67.32
2022-08-04T12:39:14.197Z,66.99
2022-08-04T12:40:31.206Z,66.96
2022-08-04T12:41:42.935Z,67.20
2022-08-04T12:43:00.182Z,67.43
2022-08-04T12:44:33.199Z,67.41
2022-08-04T12:45:52.052Z,67.26
2022-08-04T12:47:27.434Z,67.15
2022-08-04T12:48:30.108Z,66.93
2022-08-04T12:49:41.663Z,66.77
2022-08-04T12:50:59.957Z,66.56
2022-08-04T12:52:13.058Z,66.49
2022-08-04T12:53:32.188Z,66.58
2022-08-04T12:54:40.590Z,66.72
2022-08-04T12:56:01.503Z,67.04
2022-08-04T12:57:12.049Z,67.25
2022-08-04T12:58:42.811Z,67.12
2022-08-04T12:59:58.070Z,66.91
2022-08-04T13:02:09.426Z,66.69
2022-08-04T13:02:45.107Z,66.51
2022-08-04T13:04:07.117Z,66.61
2022-08-04T13:05:16.825Z,66.42
2022-08-04T13:06:42.834Z,66.67
2022-08-04T13:07:52.797Z,66.58
2022-08-04T13:09:17.498Z,66.61
2022-08-04T13:10:30.047Z,66.69
2022-08-04T13:11:40.953Z,66.66
2022-08-04T13:12:58.991Z,66.53
2022-08-04T13:14:26.014Z,66.46
2022-08-04T13:15:47.650Z,66.26
2022-08-04T13:17:08.715Z,66.14
2022-08-04T13:18:16.489Z,66.05
2022-08-04T13:19:23.933Z,65.95
2022-08-04T13:20:39.003Z,65.91
2022-08-04T13:22:03.192Z,65.88
2022-08-04T13:23:21.915Z,66.17
2022-08-04T13:24:36.486Z,66.70
2022-08-04T13:26:43.710Z,66.88
2022-08-04T13:27:42.950Z,67.05
2022-08-04T13:28:56.646Z,67.16
2022-08-04T13:30:07.605Z,67.17
2022-08-04T13:31:19.664Z,67.19
2022-08-04T13:32:29.947Z,67.39
2022-08-04T13:33:41.298Z,67.71
2022-08-04T13:34:52.683Z,67.92
2022-08-04T13:36:03.309Z,68.15
2022-08-04T13:37:20.664Z,68.15
2022-08-04T13:38:33.900Z,68.20
2022-08-04T13:39:55.187Z,67.93
2022-08-04T13:41:12.524Z,67.85
2022-08-04T13:42:23.487Z,67.87
2022-08-04T13:44:17.632Z,67.81
2022-08-04T13:45:34.758Z,67.70
2022-08-04T13:46:58.022Z,67.53
2022-08-04T13:48:15.695Z,67.29
2022-08-04T13:50:01.011Z,67.13
2022-08-04T13:51:07.746Z,67.01
2022-08-04T13:52:17.251Z,66.89
2022-08-04T13:53:27.884Z,66.73
2022-08-04T13:54:44.628Z,66.53
2022-08-04T13:56:00.176Z,66.40
2022-08-04T13:57:13.620Z,66.17
2022-08-04T13:58:27.842Z,66.01
2022-08-04T13:59:36.573Z,65.82
2022-08-04T14:01:04.230Z,65.76
2022-08-04T14:02:36.102Z,65.40
2022-08-04T14:04:05.939Z,65.46
2022-08-04T14:05:28.752Z,65.33
2022-08-04T14:07:06.896Z,65.10
2022-08-04T14:08:29.017Z,65.02
2022-08-04T14:09:42.758Z,64.75
2022-08-04T14:12:04.749Z,64.65
2022-08-04T14:12:53.520Z,64.49
2022-08-04T14:14:02.881Z,64.29
2022-08-04T14:15:11.142Z,64.01
2022-08-04T14:16:22.404Z,63.97
2022-08-04T14:17:30.905Z,63.59
2022-08-04T14:18:40.129Z,63.39
2022-08-04T14:19:56.366Z,63.21
2022-08-04T14:21:14.354Z,63.13
2022-08-04T14:22:35.988Z,63.09
2022-08-04T14:23:55.885Z,63.05
2022-08-04T14:25:17.217Z,62.98
2022-08-04T14:26:38.277Z,62.68
2022-08-04T14:27:56.792Z,62.38
2022-08-04T14:29:26.697Z,62.16
2022-08-04T14:30:39.309Z,61.99
2022-08-04T14:31:58.776Z,61.82
2022-08-04T14:34:03.874Z,61.72
2022-08-04T14:34:46.951Z,61.63
2022-08-04T14:36:04.192Z,61.41
2022-08-04T14:37:19.565Z,61.11
2022-08-04T14:39:00.706Z,60.87
2022-08-04T14:40:29.954Z,60.73
2022-08-04T14:41:51.769Z,60.34
2022-08-04T14:43:00.351Z,60.01
2022-08-04T14:44:12.607Z,59.76
2022-08-04T14:45:22.982Z,59.78
2022-08-04T14:46:36.472Z,59.57
2022-08-04T14:47:53.331Z,59.41
2022-08-04T14:49:15.930Z,59.44
2022-08-04T14:50:34.504Z,59.32
2022-08-04T14:52:09.487Z,59.37
2022-08-04T14:53:20.194Z,59.29
2022-08-04T14:54:31.938Z,59.15
2022-08-04T14:55:40.410Z,59.05
2022-08-04T14:56:55.708Z,58.92
2022-08-04T14:58:32.965Z,58.80
2022-08-04T15:00:00.846Z,58.66
2022-08-04T15:01:14.474Z,58.63
2022-08-04T15:02:24.537Z,58.49
2022-08-04T15:03:50.206Z,58.47
2022-08-04T15:06:00.857Z,58.30
2022-08-04T15:06:39.321Z,58.14
2022-08-04T15:07:47.553Z,58.08
2022-08-04T15:09:00.836Z,58.01
2022-08-04T15:10:11.243Z,57.93
2022-08-04T15:11:24.724Z,57.78
2022-08-04T15:12:36.043Z,57.56
2022-08-04T15:13:44.353Z,57.49
2022-08-04T15:14:53.398Z,57.45
2022-08-04T15:16:06.478Z,57.39
2022-08-04T15:17:29.551Z,57.29
2022-08-04T15:18:41.104Z,57.12
2022-08-04T15:19:55.925Z,56.85
2022-08-04T15:21:05.095Z,56.38
2022-08-04T15:22:26.627Z,55.08
2022-08-04T15:23:39.566Z,54.00
2022-08-04T15:24:52.268Z,53.83
2022-08-04T15:26:06.912Z,54.00
2022-08-04T15:27:15.756Z,53.67
2022-08-04T15:28:27.461Z,52.65
2022-08-04T15:29:59.173Z,52.35
2022-08-04T15:32:07.196Z,51.74
2022-08-04T15:32:54.329Z,50.54
2022-08-04T15:34:04.131Z,50.31
2022-08-04T15:35:24.831Z,49.70
2022-08-04T15:36:56.830Z,49.19
2022-08-04T15:38:08.865Z,48.77
2022-08-04T15:40:33.533Z,48.71
2022-08-04T15:42:16.221Z,48.16
2022-08-04T15:43:55.342Z,47.91
2022-08-04T15:46:30.749Z,47.67
2022-08-04T15:47:14.782Z,47.36
2022-08-04T15:48:23.719Z,47.19
2022-08-04T15:49:35.305Z,46.68
2022-08-04T15:51:01.523Z,45.90
2022-08-04T15:52:18.137Z,45.87
2022-08-04T15:54:01.441Z,46.11
2022-08-04T15:55:33.688Z,46.08
2022-08-04T15:57:02.150Z,45.68
2022-08-04T15:58:17.970Z,45.45
2022-08-04T16:00:02.587Z,45.39
2022-08-04T16:01:21.270Z,44.80
2022-08-04T16:02:39.411Z,44.65
2022-08-04T16:03:58.338Z,44.29
2022-08-04T16:05:22.507Z,44.23
2022-08-04T16:06:38.481Z,43.97
2022-08-04T16:08:06.612Z,43.73
2022-08-04T16:09:46.102Z,43.69
2022-08-04T16:10:55.721Z,43.11
2022-08-04T16:12:11.672Z,42.59
2022-08-04T16:13:28.700Z,42.54
2022-08-04T16:14:37.661Z,42.57
2022-08-04T16:16:04.242Z,42.37
2022-08-04T16:17:21.741Z,41.82
2022-08-04T16:18:40.197Z,41.86
2022-08-04T16:19:51.004Z,41.52
2022-08-04T16:21:00.394Z,41.03
2022-08-04T16:22:12.558Z,41.22
2022-08-04T16:23:53.469Z,40.91
2022-08-04T16:25:08.291Z,40.57
2022-08-04T16:26:17.103Z,40.13
2022-08-04T16:27:45.449Z,40.49
2022-08-04T16:28:56.362Z,40.44
2022-08-04T16:30:15.154Z,39.89
2022-08-04T16:31:24.087Z,39.34
2022-08-04T16:32:38.258Z,38.80
2022-08-04T16:33:49.669Z,38.44
2022-08-04T16:35:36.062Z,38.38
2022-08-04T16:37:11.865Z,38.73
2022-08-04T16:38:20.262Z,39.19
2022-08-04T16:39:28.311Z,39.22
2022-08-04T16:40:45.297Z,39.22
2022-08-04T16:41:52.847Z,39.10
2022-08-04T16:43:07.253Z,38.97
2022-08-04T16:44:54.874Z,38.98
2022-08-04T16:46:13.547Z,39.29
2022-08-04T16:47:51.200Z,39.22
2022-08-04T16:49:09.037Z,39.44
2022-08-04T16:50:19.411Z,39.58
2022-08-04T16:51:34.260Z,39.65
2022-08-04T16:52:49.996Z,39.67
2022-08-04T16:54:04.555Z,39.56
2022-08-04T16:55:18.696Z,39.74
2022-08-04T16:56:33.998Z,39.83
2022-08-04T16:58:03.599Z,39.83
2022-08-04T16:59:13.918Z,39.67
2022-08-04T17:00:32.724Z,39.69
2022-08-04T17:01:52.688Z,39.63
2022-08-04T17:03:03.586Z,39.60
2022-08-04T17:04:11.766Z,39.57
2022-08-04T17:05:39.920Z,39.74
2022-08-04T17:06:50.671Z,40.07
2022-08-04T17:08:28.188Z,40.26
2022-08-04T17:09:30.944Z,40.44
2022-08-04T17:10:45.497Z,40.55
2022-08-04T17:11:55.775Z,40.95
2022-08-04T17:14:03.066Z,41.35
2022-08-04T17:14:56.371Z,41.94
2022-08-04T17:16:13.640Z,42.40
2022-08-04T17:17:29.282Z,42.80
2022-08-04T17:18:57.133Z,43.14
2022-08-04T17:20:07.902Z,43.47
2022-08-04T17:21:21.496Z,43.32
2022-08-04T17:22:29.493Z,43.03
2022-08-04T17:24:15.997Z,43.01
2022-08-04T17:25:09.023Z,43.56
2022-08-04T17:26:19.291Z,43.55
2022-08-04T17:28:20.141Z,43.87
2022-08-04T17:28:57.451Z,43.99
2022-08-04T17:30:06.420Z,43.86
2022-08-04T17:31:16.026Z,44.09
2022-08-04T17:32:27.445Z,44.46
2022-08-04T17:33:54.940Z,44.43
2022-08-04T17:35:04.771Z,44.59
2022-08-04T17:36:13.812Z,44.49